Time;durP1;ratioP1;P1;durP2;ratioP2;P2;SDS_P1;SDS_P2;PMS_P1;PMS_P2;Temp;Humidity;BMP_temperature;BMP_pressure;BME280_temperature;BME280_humidity;BME280_pressure;Samples;Min_cycle;Max_cycle;Signal;HPM_P1;HPM_P2
2022/04/05 00:01:07;;;;;;;9.35;5.95;;;;;;;10.42;51.69;100698.34;4977767;28;20026;-83
2022/04/05 00:03:33;;;;;;;9.50;5.35;;;;;;;10.61;51.28;100739.75;4977811;28;20029;-83
2022/04/05 00:05:58;;;;;;;9.25;5.53;;;;;;;10.78;51.60;100776.94;4977638;28;20033;-82
2022/04/05 00:08:24;;;;;;;8.60;5.45;;;;;;;10.84;51.53;100768.38;4978617;28;20085;-83
2022/04/05 00:10:49;;;;;;;9.30;5.47;;;;;;;10.69;51.85;100740.03;4987380;28;20476;-83
2022/04/05 00:13:14;;;;;;;7.20;4.93;;;;;;;10.72;51.60;100737.09;4981059;28;20500;-83
2022/04/05 00:15:40;;;;;;;8.68;6.15;;;;;;;10.62;51.68;100711.91;4981123;28;20058;-82
2022/04/05 00:18:05;;;;;;;14.98;5.30;;;;;;;10.62;52.06;100732.53;4976739;28;20022;-84
2022/04/05 00:20:31;;;;;;;10.05;5.47;;;;;;;10.92;52.09;100760.53;4976561;28;20042;-83
2022/04/05 00:22:58;;;;;;;10.73;5.75;;;;;;;10.78;51.97;100735.72;4976967;28;20143;-83
2022/04/05 00:25:24;;;;;;;18.30;6.35;;;;;;;10.82;51.77;100721.88;4977886;28;20039;-83
2022/04/05 00:27:49;;;;;;;7.00;4.70;;;;;;;11.03;51.65;100762.38;4976738;28;20097;-83
2022/04/05 00:30:15;;;;;;;9.18;6.10;;;;;;;10.92;51.85;100733.63;4977360;28;20508;-83
2022/04/05 00:32:41;;;;;;;7.60;5.35;;;;;;;11.07;51.51;100746.84;4977711;28;20062;-84
2022/04/05 00:35:08;;;;;;;8.35;6.05;;;;;;;10.79;51.90;100699.78;4977674;28;20026;-84
2022/04/05 00:37:34;;;;;;;15.98;6.53;;;;;;;10.72;51.88;100693.19;4977375;28;20026;-83
2022/04/05 00:40:00;;;;;;;13.20;5.53;;;;;;;10.72;52.17;100704.81;4980038;28;20489;-83
2022/04/05 00:42:27;;;;;;;9.43;5.40;;;;;;;10.38;52.05;100630.50;4980989;28;20027;-83
2022/04/05 00:44:52;;;;;;;8.52;5.53;;;;;;;10.91;51.98;100723.88;4980944;28;20027;-82
2022/04/05 00:47:20;;;;;;;12.05;6.55;;;;;;;11.03;52.16;100737.28;4986677;28;20037;-83
2022/04/05 00:49:47;;;;;;;9.25;6.07;;;;;;;10.84;52.13;100703.81;4988247;28;20373;-82
2022/04/05 00:52:15;;;;;;;9.90;6.05;;;;;;;10.70;52.24;100693.28;4984202;28;20113;-84
2022/04/05 00:54:43;;;;;;;10.02;5.72;;;;;;;10.53;52.47;100677.66;4976630;28;20504;-82
2022/04/05 00:57:11;;;;;;;8.13;5.72;;;;;;;10.79;52.40;100732.91;4976465;28;20061;-83
2022/04/05 00:59:43;;;;;;;19.13;6.32;;;;;;;10.76;52.65;100727.75;4976599;28;20033;-82
2022/04/05 01:02:13;;;;;;;10.50;6.13;;;;;;;10.61;53.23;100728.16;4976523;28;20035;-83
2022/04/05 01:04:42;;;;;;;11.25;6.32;;;;;;;10.10;53.52;100652.47;4976564;28;20492;-84
2022/04/05 01:07:15;;;;;;;18.88;8.88;;;;;;;10.54;53.78;100722.41;4976701;28;20499;-84
2022/04/05 01:09:42;;;;;;;13.55;8.75;;;;;;;10.48;54.03;100724.75;4976784;28;20062;-83
2022/04/05 01:12:09;;;;;;;16.42;9.55;;;;;;;10.20;54.40;100691.13;4975849;28;20054;-83
2022/04/05 01:14:36;;;;;;;12.98;7.82;;;;;;;10.38;54.42;100708.47;4974156;28;20035;-83
2022/04/05 01:17:03;;;;;;;13.10;8.73;;;;;;;10.24;54.42;100687.22;4976325;28;20031;-82
2022/04/05 01:19:29;;;;;;;8.95;6.88;;;;;;;10.34;54.53;100690.88;4975972;28;20460;-82
2022/04/05 01:21:55;;;;;;;10.52;6.63;;;;;;;10.45;54.56;100707.03;4976611;28;20109;-83
2022/04/05 01:24:20;;;;;;;10.23;7.20;;;;;;;10.34;54.23;100677.41;4976745;28;20159;-82
2022/04/05 01:26:48;;;;;;;10.00;7.13;;;;;;;10.56;54.20;100709.69;4975932;28;20031;-83
2022/04/05 01:29:16;;;;;;;9.65;6.32;;;;;;;10.45;54.26;100685.50;4975589;28;20027;-83
2022/04/05 01:31:44;;;;;;;15.20;7.03;;;;;;;9.97;54.56;100585.41;4975119;28;20147;-82
2022/04/05 01:34:13;;;;;;;13.35;7.93;;;;;;;10.38;54.66;100641.25;4975957;28;20431;-82
2022/04/05 06:07:37;;;;;;;27.25;13.52;;;;;;;11.67;61.67;100631.28;5066090;28;1444981;-80
2022/04/05 06:10:07;;;;;;;38.08;13.32;;;;;;;11.54;61.48;100601.00;5108014;28;20063;-82
2022/04/05 06:12:32;;;;;;;22.25;12.35;;;;;;;11.70;61.76;100652.63;5109450;28;20054;-79
2022/04/05 06:14:58;;;;;;;23.23;13.65;;;;;;;11.60;61.92;100640.00;5110430;28;20398;-81
2022/04/05 06:17:24;;;;;;;25.08;12.80;;;;;;;11.64;62.22;100645.03;5109437;28;20020;-79
2022/04/05 06:19:52;;;;;;;25.92;13.27;;;;;;;11.68;61.86;100657.22;5110564;28;20028;-80
2022/04/05 06:22:18;;;;;;;23.63;11.98;;;;;;;11.61;62.11;100650.69;5112950;28;20410;-82
2022/04/05 06:24:43;;;;;;;17.63;11.70;;;;;;;11.38;61.55;100597.91;5094505;28;20030;-81
2022/04/05 06:27:09;;;;;;;19.98;10.98;;;;;;;11.37;61.97;100577.38;5111213;28;20020;-81
2022/04/05 06:29:34;;;;;;;32.40;11.25;;;;;;;11.90;61.13;100638.25;5117095;28;20019;-80
2022/04/05 06:32:01;;;;;;;34.85;13.07;;;;;;;11.66;60.72;100581.09;5123221;28;20461;-83
2022/04/05 06:34:27;;;;;;;63.75;14.07;;;;;;;11.75;60.36;100583.00;5119764;28;20011;-82
2022/04/05 06:36:53;;;;;;;33.67;13.40;;;;;;;12.13;59.52;100614.72;5112587;28;20046;-82
2022/04/05 06:39:19;;;;;;;31.30;11.18;;;;;;;12.23;59.28;100630.94;5109652;28;20047;-81
2022/04/05 06:41:44;;;;;;;21.65;10.88;;;;;;;12.16;59.50;100625.22;5109358;28;20070;-80
2022/04/05 06:44:10;;;;;;;14.70;10.27;;;;;;;12.24;58.22;100627.22;5091832;28;20769;-80
2022/04/05 06:46:35;;;;;;;15.73;10.93;;;;;;;12.30;58.66;100626.69;5070228;28;20119;-81
2022/04/05 06:49:01;;;;;;;23.38;10.70;;;;;;;12.36;57.81;100626.13;5088735;28;20035;-80
2022/04/05 06:51:28;;;;;;;31.83;13.13;;;;;;;12.57;57.48;100626.91;5088946;28;20148;-81
2022/04/05 06:53:53;;;;;;;21.00;11.45;;;;;;;12.40;56.60;100601.47;5088523;28;20021;-81
2022/04/05 06:56:21;;;;;;;20.73;11.13;;;;;;;12.27;57.49;100605.38;5088838;28;20383;-81
2022/04/05 06:58:48;;;;;;;27.85;11.05;;;;;;;12.38;56.84;100625.00;5088468;28;20047;-82
2022/04/05 07:01:14;;;;;;;32.35;12.73;;;;;;;12.28;57.31;100612.50;5070338;28;20404;-81
2022/04/05 07:03:39;;;;;;;24.48;11.63;;;;;;;12.40;57.13;100627.59;5088791;28;20024;-79
2022/04/05 07:06:05;;;;;;;25.58;12.60;;;;;;;12.34;56.90;100606.56;5088830;28;20446;-81
2022/04/05 07:08:30;;;;;;;14.43;10.13;;;;;;;12.34;55.90;100574.19;5089024;28;20048;-82
2022/04/05 07:10:56;;;;;;;21.50;12.25;;;;;;;12.66;55.39;100618.00;5093393;28;20020;-83
2022/04/05 07:13:21;;;;;;;16.83;12.45;;;;;;;12.52;55.43;100599.50;5094464;28;20012;-84
2022/04/05 07:15:47;;;;;;;19.15;12.38;;;;;;;12.79;55.38;100618.59;5080612;28;20397;-83
2022/04/05 07:18:12;;;;;;;22.85;11.65;;;;;;;12.72;54.99;100606.66;5075997;28;20021;-81
2022/04/05 07:20:38;;;;;;;26.58;14.30;;;;;;;12.70;55.81;100597.84;5075723;28;20121;-82
2022/04/05 07:23:07;;;;;;;26.58;14.30;;;;;;;12.87;55.38;100607.94;5076596;28;20021;-82
2022/04/05 07:25:38;;;;;;;22.48;13.13;;;;;;;12.85;57.22;100619.88;5092720;28;20027;-82
2022/04/05 07:28:04;;;;;;;24.50;15.00;;;;;;;12.08;58.39;100530.66;5069670;28;20035;-83
2022/04/05 07:30:30;;;;;;;23.60;14.23;;;;;;;12.26;59.26;100614.47;5079924;28;20024;-84
2022/04/05 07:32:55;;;;;;;22.38;12.95;;;;;;;12.06;59.68;100574.94;5075530;28;20021;-82
2022/04/05 07:35:21;;;;;;;32.42;13.60;;;;;;;12.05;59.84;100579.47;5081370;28;20485;-83
2022/04/05 07:37:47;;;;;;;42.55;14.73;;;;;;;12.24;60.37;100616.44;5095836;28;20398;-84
2022/04/05 07:40:14;;;;;;;26.23;12.93;;;;;;;12.12;60.38;100625.63;5095283;28;20047;-82
2022/04/05 07:42:41;;;;;;;23.55;15.00;;;;;;;12.21;60.73;100627.50;5095699;28;20028;-82
2022/04/05 07:45:08;;;;;;;25.80;14.00;;;;;;;12.23;60.36;100620.97;5078221;28;20047;-84
2022/04/05 07:47:34;;;;;;;25.02;13.05;;;;;;;12.04;60.60;100587.69;5095709;28;20047;-86
2022/04/05 07:50:00;;;;;;;19.90;13.00;;;;;;;12.00;60.90;100579.03;5095397;28;20137;-84
2022/04/05 07:52:26;;;;;;;30.20;13.13;;;;;;;12.29;60.01;100604.25;5095485;28;20496;-83
2022/04/05 07:54:52;;;;;;;21.98;12.48;;;;;;;12.18;60.54;100615.16;5095281;28;20047;-83
2022/04/05 07:57:17;;;;;;;17.65;11.98;;;;;;;11.52;61.44;100542.88;5095375;28;20027;-83
2022/04/05 07:59:42;;;;;;;23.33;14.07;;;;;;;11.79;60.69;100557.53;5095910;28;20424;-84
2022/04/05 08:02:08;;;;;;;22.98;13.43;;;;;;;12.23;60.56;100607.50;5097660;28;20588;-84
2022/04/05 08:04:34;;;;;;;26.25;11.90;;;;;;;11.90;61.49;100562.81;5108277;28;20032;-84
2022/04/05 08:07:01;;;;;;;25.20;16.85;;;;;;;12.24;61.35;100598.44;5107754;28;20193;-85
2022/04/05 08:09:27;;;;;;;36.58;14.45;;;;;;;12.36;61.14;100599.16;5095387;28;20028;-84
2022/04/05 08:11:52;;;;;;;25.83;12.60;;;;;;;12.05;60.33;100530.13;5077138;28;20024;-84
2022/04/05 08:14:18;;;;;;;27.63;12.00;;;;;;;12.59;59.56;100595.28;5095712;28;20394;-85
2022/04/05 08:16:44;;;;;;;18.10;12.05;;;;;;;12.78;59.40;100595.28;5095540;28;20382;-86
2022/04/05 08:19:09;;;;;;;21.77;12.00;;;;;;;12.75;58.33;100568.59;5094846;28;20074;-86
2022/04/05 08:21:36;;;;;;;21.73;12.20;;;;;;;12.55;57.71;100526.41;5095390;28;20077;-84
2022/04/05 08:24:01;;;;;;;21.75;11.15;;;;;;;12.95;58.46;100575.72;5095201;28;20032;-86
2022/04/05 08:26:27;;;;;;;17.65;10.48;;;;;;;12.62;58.45;100530.25;5076601;28;20030;-85
2022/04/05 08:28:55;;;;;;;23.00;11.85;;;;;;;12.77;58.54;100561.22;5097458;28;20063;-85
2022/04/05 08:31:20;;;;;;;25.77;10.82;;;;;;;12.93;58.83;100577.72;5076342;28;20469;-86
2022/04/05 08:33:46;;;;;;;24.75;11.10;;;;;;;12.83;58.44;100532.81;5094601;28;20049;-86
2022/04/05 08:36:12;;;;;;;22.90;9.20;;;;;;;13.05;58.31;100549.59;5094795;28;20031;-84
2022/04/05 08:38:39;;;;;;;23.55;11.07;;;;;;;12.87;58.12;100486.50;5097183;28;20023;-86
2022/04/05 08:41:05;;;;;;;15.50;9.82;;;;;;;13.36;57.87;100576.47;5093760;28;20032;-85
2022/04/05 08:43:32;;;;;;;19.25;9.98;;;;;;;13.37;58.13;100570.03;5093751;28;20042;-85
2022/04/05 08:45:59;;;;;;;24.23;10.23;;;;;;;13.33;57.77;100541.63;5093948;28;20053;-84
2022/04/05 08:48:28;;;;;;;17.88;10.48;;;;;;;13.53;57.30;100543.31;5095303;28;20111;-86
2022/04/05 08:50:55;;;;;;;18.10;9.10;;;;;;;13.49;57.02;100555.38;5096056;28;20028;-86
2022/04/05 08:53:20;;;;;;;16.20;9.48;;;;;;;13.33;57.46;100563.25;5093405;28;20052;-85
2022/04/05 08:55:46;;;;;;;26.10;11.50;;;;;;;13.30;57.83;100547.34;5100043;28;20024;-85
2022/04/05 08:58:13;;;;;;;16.73;10.25;;;;;;;12.85;58.34;100483.09;5093880;28;20024;-84
2022/04/05 09:00:39;;;;;;;20.50;10.23;;;;;;;13.18;58.42;100533.09;5093370;28;20024;-84
2022/04/05 09:03:05;;;;;;;21.15;10.43;;;;;;;12.85;58.83;100501.13;5093189;28;20024;-85
2022/04/05 09:05:45;;;;;;;19.20;11.05;;;;;;;12.59;59.38;100471.16;5093242;28;20413;-85
2022/04/05 09:08:13;;;;;;;19.25;11.93;;;;;;;13.15;59.51;100543.38;5093439;28;20164;-86
2022/04/05 09:10:39;;;;;;;21.67;11.82;;;;;;;12.92;59.35;100508.53;5093453;28;20138;-85
2022/04/05 09:13:08;;;;;;;24.17;12.10;;;;;;;13.21;59.82;100522.00;5093395;28;20028;-85
2022/04/05 09:15:35;;;;;;;16.65;10.40;;;;;;;13.05;59.48;100530.69;5075779;28;20038;-86
2022/04/05 09:18:01;;;;;;;20.70;10.32;;;;;;;12.88;59.56;100473.84;5094398;28;20032;-86
2022/04/05 09:20:27;;;;;;;21.85;11.45;;;;;;;13.23;59.97;100525.44;5114481;28;20047;-85
2022/04/05 09:22:54;;;;;;;14.93;9.75;;;;;;;13.25;59.30;100500.97;5078270;28;20508;-85
2022/04/05 09:25:20;;;;;;;25.88;9.70;;;;;;;13.48;58.76;100502.38;5075857;28;20024;-85
2022/04/05 09:27:46;;;;;;;18.80;9.73;;;;;;;13.47;58.57;100516.84;5095669;28;20048;-86
2022/04/05 09:30:17;;;;;;;20.40;10.23;;;;;;;13.40;58.53;100477.91;5098895;28;20482;-86
2022/04/05 09:32:47;;;;;;;27.42;9.43;;;;;;;13.33;58.20;100468.72;5099547;28;20020;-84
2022/04/05 09:35:14;;;;;;;23.63;9.63;;;;;;;13.23;58.80;100481.38;5105851;28;20016;-84
2022/04/05 09:37:40;;;;;;;25.50;10.02;;;;;;;13.38;58.56;100463.72;5106771;28;20050;-83
2022/04/05 09:40:25;;;;;;;26.98;9.52;;;;;;;13.78;57.78;100504.81;5109319;28;20020;-84
2022/04/05 09:42:58;;;;;;;18.05;9.18;;;;;;;13.61;57.70;100492.06;5077636;28;20414;-85
2022/04/05 09:45:40;;;;;;;16.00;9.55;;;;;;;13.95;57.50;100498.63;5095071;28;20034;-85
2022/04/05 09:48:06;;;;;;;15.02;8.70;;;;;;;13.91;57.40;100467.47;5093757;28;20024;-85
2022/04/05 09:50:32;;;;;;;18.20;9.38;;;;;;;13.71;57.23;100475.81;5095079;28;20046;-85
2022/04/05 09:53:05;;;;;;;17.85;9.90;;;;;;;13.51;58.04;100496.66;5104886;28;20024;-85
2022/04/05 09:55:31;;;;;;;13.15;8.50;;;;;;;13.68;57.75;100476.97;5084512;28;20055;-85
2022/04/05 09:58:11;;;;;;;13.73;8.45;;;;;;;13.63;57.53;100484.69;5070248;28;20473;-86
2022/04/05 10:00:37;;;;;;;14.50;8.45;;;;;;;13.59;57.99;100477.84;5081677;28;20047;-85
2022/04/05 10:03:04;;;;;;;13.00;8.35;;;;;;;13.41;57.77;100445.38;5092963;28;20040;-85
2022/04/05 10:05:32;;;;;;;15.80;8.38;;;;;;;13.36;58.17;100479.22;5097296;28;20031;-83
2022/04/05 10:07:58;;;;;;;12.85;8.18;;;;;;;13.06;59.12;100462.19;5076360;28;20510;-83
2022/04/05 10:10:25;;;;;;;13.40;7.28;;;;;;;12.66;59.40;100404.84;5092558;28;20028;-84
2022/04/05 10:12:52;;;;;;;27.30;8.48;;;;;;;12.98;59.80;100472.00;5080507;28;20024;-85
2022/04/05 10:15:21;;;;;;;17.55;9.40;;;;;;;12.82;60.11;100459.09;5093131;28;20059;-84
2022/04/05 10:17:53;;;;;;;11.88;8.10;;;;;;;13.09;59.90;100461.06;5094919;28;20057;-85
2022/04/05 10:20:19;;;;;;;21.25;8.65;;;;;;;13.16;59.84;100448.69;5062299;28;20032;-85
2022/04/05 10:22:56;;;;;;;17.13;8.05;;;;;;;13.26;59.64;100448.69;5098754;28;20032;-84
2022/04/05 10:25:22;;;;;;;24.73;8.85;;;;;;;13.31;59.74;100458.03;5093429;28;20031;-84
2022/04/05 10:27:49;;;;;;;16.27;8.57;;;;;;;13.07;60.05;100380.19;5086007;28;20028;-85
2022/04/05 10:30:29;;;;;;;21.15;8.85;;;;;;;13.47;59.29;100427.72;5093701;28;20034;-84
2022/04/05 10:33:11;;;;;;;31.75;9.18;;;;;;;13.90;58.80;100441.44;5078967;28;20028;-85
2022/04/05 10:35:42;;;;;;;17.67;8.17;;;;;;;13.67;57.58;100426.59;5093832;28;20026;-84
2022/04/05 10:38:13;;;;;;;19.17;9.00;;;;;;;13.82;57.35;100445.91;5075312;28;20458;-84
2022/04/05 10:40:38;;;;;;;20.98;10.57;;;;;;;13.77;57.10;100400.41;5093069;28;20020;-86
2022/04/05 10:43:17;;;;;;;14.75;7.82;;;;;;;14.12;56.61;100441.03;5095968;28;20027;-84
2022/04/05 10:45:45;;;;;;;20.00;7.22;;;;;;;14.22;55.95;100432.00;5096896;28;20032;-85
2022/04/05 10:48:16;;;;;;;23.23;7.57;;;;;;;14.15;56.71;100424.50;5096235;28;20028;-85
2022/04/05 10:51:07;;;;;;;14.80;7.03;;;;;;;13.58;58.06;100416.69;5094527;28;20027;-84
2022/04/05 10:54:17;;;;;;;16.20;7.90;;;;;;;13.53;58.31;100409.06;5095929;28;20020;-85
2022/04/05 10:56:30;;;;;;;12.20;8.52;;;;;;;13.86;58.67;100426.53;5096822;28;20508;-84
2022/04/05 10:58:55;;;;;;;26.33;9.50;;;;;;;13.85;59.51;100426.69;5097937;28;20450;-85
2022/04/05 11:01:43;;;;;;;22.55;8.57;;;;;;;13.72;58.33;100391.03;5088183;28;20024;-83
2022/04/05 11:04:20;;;;;;;33.50;8.88;;;;;;;13.51;58.82;100410.22;5111868;28;20028;-84
2022/04/05 11:06:58;;;;;;;20.00;9.20;;;;;;;13.27;59.99;100404.47;5093861;28;20103;-85
2022/04/05 11:09:43;;;;;;;23.48;9.75;;;;;;;13.03;60.76;100408.47;5110089;28;20044;-84
2022/04/05 11:12:20;;;;;;;21.70;9.77;;;;;;;12.78;61.48;100387.50;5112535;28;20020;-85
2022/04/05 11:14:52;;;;;;;14.85;9.57;;;;;;;12.71;62.79;100396.31;5107193;28;20023;-82
2022/04/05 11:17:25;;;;;;;17.65;10.40;;;;;;;12.42;62.79;100329.75;5093519;28;20085;-86
2022/04/05 11:19:55;;;;;;;19.73;9.43;;;;;;;12.82;63.55;100413.19;5090352;28;20066;-86
2022/04/05 11:22:21;;;;;;;17.52;8.10;;;;;;;12.79;63.09;100391.03;5093357;28;20089;-88
2022/04/05 11:25:06;;;;;;;23.23;9.68;;;;;;;12.94;63.50;100390.44;5096022;28;20032;-88
2022/04/05 11:27:45;;;;;;;26.63;10.88;;;;;;;12.97;63.22;100352.38;5104182;28;20027;-88
2022/04/05 11:30:23;;;;;;;19.15;10.25;;;;;;;13.44;62.16;100379.38;5100801;28;20446;-87
2022/04/05 11:33:16;;;;;;;20.15;10.65;;;;;;;13.60;61.87;100376.88;5103417;28;20028;-85
2022/04/05 11:35:42;;;;;;;;;;;;;;;13.66;62.20;100383.53;5106890;28;20028;-83
2022/04/05 11:38:18;;;;;;;18.55;9.25;;;;;;;13.59;61.87;100354.41;5111958;28;19904;-87
2022/04/05 11:40:51;;;;;;;15.65;8.25;;;;;;;13.57;61.70;100325.84;5109126;28;20035;-86
2022/04/05 11:43:19;;;;;;;21.45;9.98;;;;;;;14.03;60.63;100374.34;5092737;28;20130;-86
2022/04/05 11:45:49;;;;;;;19.10;9.18;;;;;;;14.16;61.15;100352.31;5093054;28;20465;-87
2022/04/05 11:48:16;;;;;;;21.45;8.85;;;;;;;14.05;60.75;100339.88;5109473;28;20028;-85
2022/04/05 11:50:42;;;;;;;24.10;10.35;;;;;;;14.05;60.89;100320.94;5109375;28;20095;-86
2022/04/05 11:53:21;;;;;;;15.43;8.50;;;;;;;14.24;60.34;100343.44;5113075;28;20032;-86
2022/04/05 11:56:13;;;;;;;13.18;7.85;;;;;;;14.39;60.56;100345.47;5106938;28;20058;-86
2022/04/05 11:58:46;;;;;;;12.68;7.93;;;;;;;14.27;60.90;100348.53;5108361;28;20047;-84
2022/04/05 12:01:15;;;;;;;17.35;8.70;;;;;;;14.23;61.15;100349.84;5105149;28;20023;-84
2022/04/05 12:03:52;;;;;;;13.70;7.72;;;;;;;14.31;61.47;100339.09;5104798;28;20039;-82
2022/04/05 12:06:24;;;;;;;20.08;8.43;;;;;;;13.89;61.64;100301.84;5092592;28;20036;-85
2022/04/05 12:08:53;;;;;;;27.15;8.65;;;;;;;14.30;61.04;100324.72;5109725;28;20059;-85
2022/04/05 12:11:20;;;;;;;9.70;7.70;;;;;;;14.11;60.31;100274.34;5110716;28;20359;-89
2022/04/05 12:14:00;;;;;;;17.40;7.28;;;;;;;14.23;60.58;100320.09;5102217;28;20052;-84
2022/04/05 12:16:42;;;;;;;22.17;8.93;;;;;;;14.33;61.07;100319.03;5109219;28;20032;-87
2022/04/05 12:19:08;;;;;;;21.93;9.37;;;;;;;14.42;60.40;100303.72;5106454;28;20035;-90
2022/04/05 12:21:34;;;;;;;20.13;8.95;;;;;;;14.57;58.88;100307.56;5103492;28;20266;-82
2022/04/05 12:24:01;;;;;;;23.70;8.52;;;;;;;14.11;58.90;100305.97;5091323;28;20020;-89
2022/04/05 12:26:31;;;;;;;21.38;9.25;;;;;;;13.69;60.71;100319.22;5097316;28;20032;-87
2022/04/05 12:28:59;;;;;;;18.00;7.25;;;;;;;13.47;61.31;100281.81;5093987;28;20059;-87
2022/04/05 12:31:28;;;;;;;11.52;7.15;;;;;;;13.37;62.05;100275.63;5108031;28;20024;-84
2022/04/05 12:34:09;;;;;;;12.18;7.88;;;;;;;13.51;62.92;100305.69;5092231;28;20049;-84
2022/04/05 12:37:02;;;;;;;12.57;7.83;;;;;;;13.74;62.71;100281.78;5116491;28;20031;-86
2022/04/05 12:39:32;;;;;;;16.10;8.05;;;;;;;13.70;60.81;100302.00;5112283;28;20294;-87
2022/04/05 12:42:09;;;;;;;29.35;9.20;;;;;;;13.74;61.79;100270.09;5117361;28;20080;-90
2022/04/05 12:44:40;;;;;;;17.77;8.80;;;;;;;14.01;61.44;100281.69;5116520;28;20060;-89
2022/04/05 12:47:08;;;;;;;12.20;8.20;;;;;;;14.07;61.18;100267.56;5117555;28;20035;-90
2022/04/05 12:49:35;;;;;;;26.52;11.15;;;;;;;14.26;60.35;100276.50;5097245;28;20210;-90
2022/04/05 12:52:10;;;;;;;14.68;7.97;;;;;;;14.26;58.70;100271.94;5115385;28;20027;-89
2022/04/05 12:54:39;;;;;;;23.83;9.10;;;;;;;13.81;59.72;100207.19;5114508;28;20028;-90
2022/04/05 12:57:35;;;;;;;16.70;8.02;;;;;;;14.31;58.62;100263.38;5096317;28;20034;-89
2022/04/05 13:00:31;;;;;;;12.75;7.90;;;;;;;14.37;57.90;100269.00;5095560;28;20424;-89
2022/04/05 13:02:59;;;;;;;16.92;7.28;;;;;;;14.25;57.05;100258.59;5105216;28;20051;-80
2022/04/05 13:08:28;;;;;;;20.20;9.70;;;;;;;13.98;59.39;100243.28;5094244;28;20401;-80
2022/04/05 13:10:53;;;;;;;;;;;;;;;14.07;57.71;100258.59;5076004;28;20379;-81
2022/04/05 13:13:24;;;;;;;16.23;7.28;;;;;;;14.21;55.60;100247.22;5074732;28;19924;-80
2022/04/05 13:16:04;;;;;;;15.02;6.57;;;;;;;13.92;55.61;100214.19;5093989;28;20051;-80
2022/04/05 13:18:39;;;;;;;14.93;6.70;;;;;;;13.98;55.69;100246.84;5096712;28;20077;-80
2022/04/05 13:21:10;;;;;;;11.50;6.28;;;;;;;13.83;54.56;100237.59;5095839;28;20030;-81
2022/04/05 13:23:37;;;;;;;14.50;7.00;;;;;;;14.01;55.10;100230.31;5096295;28;20024;-81
2022/04/05 13:26:05;;;;;;;15.20;6.82;;;;;;;14.09;54.87;100221.44;5079525;28;20031;-89
2022/04/05 13:28:35;;;;;;;18.35;6.80;;;;;;;13.85;55.04;100178.81;5098139;28;20028;-89
2022/04/05 13:31:10;;;;;;;12.00;7.18;;;;;;;14.12;53.63;100213.88;5115611;28;20047;-92
2022/04/05 13:33:37;;;;;;;14.88;8.20;;;;;;;14.45;53.01;100241.16;5115164;28;20097;-88
2022/04/05 13:36:03;;;;;;;29.23;7.20;;;;;;;14.47;52.58;100231.03;5096805;28;20008;-89
2022/04/05 13:38:29;;;;;;;12.07;7.57;;;;;;;14.66;50.46;100230.81;5097984;28;20008;-90
2022/04/05 13:40:55;;;;;;;22.30;6.93;;;;;;;14.49;50.64;100183.03;5094221;28;20043;-89
2022/04/05 13:43:21;;;;;;;17.52;7.25;;;;;;;14.66;50.96;100214.56;5078511;28;20032;-80
2022/04/05 13:45:46;;;;;;;14.43;7.30;;;;;;;14.57;51.73;100216.38;5093255;28;20016;-81
2022/04/05 13:48:12;;;;;;;16.02;7.15;;;;;;;14.47;52.19;100188.59;5094644;28;20051;-81
2022/04/05 13:50:37;;;;;;;19.08;8.02;;;;;;;14.78;52.57;100226.81;5094897;28;20030;-81
2022/04/05 13:53:03;;;;;;;21.20;7.93;;;;;;;14.66;53.53;100215.44;5094240;28;20092;-77
2022/04/05 13:55:28;;;;;;;18.98;8.98;;;;;;;14.78;53.58;100201.59;5091934;28;20031;-80
2022/04/05 13:57:54;;;;;;;15.43;7.28;;;;;;;14.70;53.89;100194.31;5092257;28;20020;-79
2022/04/05 14:00:20;;;;;;;9.88;6.35;;;;;;;14.78;54.52;100205.16;5092698;28;20437;-81
2022/04/05 14:02:45;;;;;;;28.92;7.88;;;;;;;14.73;54.50;100193.97;5092346;28;20024;-81
2022/04/05 14:05:11;;;;;;;13.35;6.90;;;;;;;14.87;54.84;100209.59;5093300;28;20058;-81
2022/04/05 14:07:40;;;;;;;14.88;7.32;;;;;;;14.77;55.46;100195.31;5102833;28;20063;-82
2022/04/05 14:10:06;;;;;;;29.08;8.25;;;;;;;14.67;55.78;100211.72;5101805;28;20054;-80
2022/04/05 14:12:32;;;;;;;22.55;8.00;;;;;;;14.74;55.97;100201.06;5097530;28;20102;-82
2022/04/05 14:14:57;;;;;;;21.25;7.95;;;;;;;14.54;56.13;100177.97;5095033;28;20473;-82
2022/04/05 14:17:23;;;;;;;13.30;6.82;;;;;;;14.62;56.40;100188.81;5093023;28;20023;-80
2022/04/05 14:19:48;;;;;;;12.77;7.95;;;;;;;14.42;56.13;100179.25;5093071;28;20028;-82
2022/04/05 14:22:14;;;;;;;23.35;7.90;;;;;;;14.33;56.51;100147.75;5092804;28;20028;-82
2022/04/05 14:24:39;;;;;;;18.63;8.52;;;;;;;14.78;57.06;100210.56;5092571;28;20126;-83
2022/04/05 14:27:06;;;;;;;20.60;8.20;;;;;;;14.75;56.78;100173.00;5096147;28;20486;-81
2022/04/05 14:29:33;;;;;;;13.07;7.78;;;;;;;15.02;56.32;100204.41;5096407;28;20058;-82
2022/04/05 14:32:00;;;;;;;18.55;7.75;;;;;;;14.74;56.56;100168.59;5096508;28;20073;-81
2022/04/05 14:34:25;;;;;;;16.38;8.05;;;;;;;15.03;56.83;100201.56;5096655;28;20020;-81
2022/04/05 14:36:51;;;;;;;14.23;7.63;;;;;;;14.93;57.34;100203.53;5095973;28;20481;-80
2022/04/05 14:39:16;;;;;;;11.45;7.60;;;;;;;14.85;57.37;100198.09;5077666;28;20104;-81
2022/04/05 14:41:42;;;;;;;14.75;7.40;;;;;;;14.59;59.23;100194.56;5096130;28;20016;-81
2022/04/05 14:44:07;;;;;;;20.48;8.90;;;;;;;14.58;60.27;100198.31;5095961;28;20035;-82
2022/04/05 14:46:34;;;;;;;16.20;8.88;;;;;;;14.54;59.87;100172.56;5096123;28;20392;-81
2022/04/05 14:49:01;;;;;;;14.95;7.10;;;;;;;14.62;60.12;100186.97;5096086;28;20024;-81
2022/04/05 14:51:31;;;;;;;11.25;7.32;;;;;;;14.48;59.57;100154.25;5077620;28;20107;-82
2022/04/05 14:53:59;;;;;;;15.57;8.30;;;;;;;14.77;59.90;100195.31;5099895;28;20020;-80
2022/04/05 14:56:28;;;;;;;26.63;9.50;;;;;;;14.69;59.54;100160.97;5104578;28;20064;-82
2022/04/05 14:58:54;;;;;;;17.27;8.30;;;;;;;15.05;58.74;100196.81;5096293;28;20438;-83
2022/04/05 15:01:19;;;;;;;12.20;8.98;;;;;;;15.09;58.40;100194.63;5095852;28;20057;-81
2022/04/05 15:03:45;;;;;;;14.57;7.40;;;;;;;15.01;58.26;100184.63;5095575;28;20054;-81
2022/04/05 15:06:10;;;;;;;28.23;10.00;;;;;;;14.86;58.70;100191.66;5095282;28;20371;-81
2022/04/05 15:08:36;;;;;;;16.70;7.82;;;;;;;14.46;58.92;100148.16;5094969;28;20048;-83
2022/04/05 15:11:02;;;;;;;19.92;13.60;;;;;;;14.67;59.09;100197.34;5094981;28;20062;-82
2022/04/05 15:13:33;;;;;;;28.42;8.98;;;;;;;14.55;59.34;100204.03;5095375;28;20024;-81
2022/04/05 15:15:59;;;;;;;21.15;10.98;;;;;;;14.19;59.75;100159.97;5077031;28;20405;-81
2022/04/05 15:18:25;;;;;;;20.27;8.00;;;;;;;13.77;60.18;100097.66;5095365;28;20121;-81
2022/04/05 15:20:55;;;;;;;31.33;7.88;;;;;;;14.04;60.75;100186.75;5096432;28;20454;-82
2022/04/05 15:23:24;;;;;;;13.85;7.65;;;;;;;13.76;61.97;100209.47;5097212;28;20374;-81
2022/04/05 15:25:50;;;;;;;17.70;7.68;;;;;;;13.66;62.15;100187.13;5076610;28;20019;-82
2022/04/05 15:28:17;;;;;;;31.67;8.48;;;;;;;13.75;61.96;100197.00;5094824;28;20482;-82
2022/04/05 15:30:43;;;;;;;23.88;8.45;;;;;;;13.69;62.28;100191.34;5076698;28;20131;-82
2022/04/05 15:33:09;;;;;;;13.38;6.97;;;;;;;13.41;63.03;100198.69;5095503;28;20420;-81
2022/04/05 15:35:36;;;;;;;14.00;7.57;;;;;;;13.32;63.31;100205.84;5095061;28;20046;-81
2022/04/05 15:38:03;;;;;;;17.90;6.57;;;;;;;12.78;64.33;100157.28;5095386;28;20032;-82
2022/04/05 15:40:28;;;;;;;14.18;7.03;;;;;;;12.88;65.10;100196.69;5101499;28;20027;-81
2022/04/05 15:42:55;;;;;;;16.60;7.55;;;;;;;12.91;65.26;100200.94;5086819;28;20024;-82
2022/04/05 15:45:22;;;;;;;14.43;6.65;;;;;;;12.88;66.02;100210.19;5104887;28;20039;-79
2022/04/05 15:47:49;;;;;;;15.30;7.07;;;;;;;12.68;65.83;100186.16;5102169;28;20027;-82
2022/04/05 15:50:17;;;;;;;24.70;7.72;;;;;;;12.73;66.26;100208.13;5098623;28;20082;-82
2022/04/05 15:52:42;;;;;;;22.65;7.28;;;;;;;12.48;66.97;100190.75;5077160;28;20035;-82
2022/04/05 15:55:10;;;;;;;13.77;6.97;;;;;;;12.69;66.62;100204.06;5094313;28;20024;-81
2022/04/05 15:57:38;;;;;;;32.80;8.75;;;;;;;12.46;66.89;100152.31;5094236;28;20062;-82